createdAt,value
2023-03-17T00:01:54.998Z,100.00
2023-03-17T00:04:25.473Z,100.00
2023-03-17T00:06:53.865Z,100.00
2023-03-17T00:09:22.906Z,100.00
2023-03-17T00:11:51.241Z,100.00
2023-03-17T00:14:19.677Z,100.00
2023-03-17T00:16:50.736Z,100.00
2023-03-17T00:19:25.617Z,100.00
2023-03-17T00:21:53.679Z,100.00
2023-03-17T00:24:21.850Z,100.00
2023-03-17T00:26:49.834Z,100.00
2023-03-17T00:29:17.780Z,100.00
2023-03-17T00:31:46.508Z,100.00
2023-03-17T00:34:18.215Z,100.00
2023-03-17T00:36:50.990Z,100.00
2023-03-17T00:39:19.150Z,100.00
2023-03-17T00:41:49.582Z,100.00
2023-03-17T00:44:17.445Z,100.00
2023-03-17T00:46:46.465Z,100.00
2023-03-17T00:51:45.079Z,100.00
2023-03-17T00:54:15.509Z,100.00
2023-03-17T00:56:44.794Z,100.00
2023-03-17T00:59:21.710Z,100.00
2023-03-17T01:01:50.329Z,100.00
2023-03-17T01:04:19.528Z,100.00
2023-03-17T01:06:47.924Z,100.00
2023-03-17T01:09:19.332Z,100.00
2023-03-17T01:11:48.639Z,100.00
2023-03-17T01:14:17.335Z,100.00
2023-03-17T01:16:45.633Z,100.00
2023-03-17T01:19:14.373Z,100.00
2023-03-17T01:21:42.680Z,100.00
2023-03-17T01:24:10.616Z,100.00
2023-03-17T01:26:40.492Z,100.00
2023-03-17T01:29:08.847Z,100.00
2023-03-17T01:31:37.493Z,100.00
2023-03-17T01:34:06.163Z,100.00
2023-03-17T01:36:34.189Z,100.00
2023-03-17T01:39:03.341Z,100.00
2023-03-17T01:41:34.756Z,100.00
2023-03-17T01:44:03.959Z,100.00
2023-03-17T01:46:34.199Z,100.00
2023-03-17T01:49:09.481Z,100.00
2023-03-17T01:51:42.954Z,100.00
2023-03-17T01:54:15.254Z,100.00
2023-03-17T01:56:45.310Z,100.00
2023-03-17T01:59:20.104Z,100.00
2023-03-17T02:01:51.435Z,100.00
2023-03-17T02:04:20.855Z,100.00
2023-03-17T02:06:57.945Z,100.00
2023-03-17T02:09:28.139Z,100.00
2023-03-17T02:11:57.484Z,100.00
2023-03-17T02:14:26.612Z,100.00
2023-03-17T02:16:54.914Z,100.00
2023-03-17T02:19:23.175Z,100.00
2023-03-17T02:21:55.062Z,100.00
2023-03-17T02:24:29.211Z,100.00
2023-03-17T02:27:01.112Z,100.00
2023-03-17T02:29:29.036Z,100.00
2023-03-17T02:31:57.148Z,100.00
2023-03-17T02:34:24.904Z,100.00
2023-03-17T02:36:54.578Z,100.00
2023-03-17T02:39:22.408Z,100.00
2023-03-17T02:41:50.533Z,100.00
2023-03-17T02:44:18.693Z,100.00
2023-03-17T02:46:46.932Z,100.00
2023-03-17T02:49:16.298Z,100.00
2023-03-17T02:51:45.067Z,100.00
2023-03-17T02:54:14.541Z,100.00
2023-03-17T02:56:42.512Z,100.00
2023-03-17T02:59:10.595Z,100.00
2023-03-17T03:01:39.664Z,100.00
2023-03-17T03:04:08.676Z,100.00
2023-03-17T03:06:37.551Z,100.00
2023-03-17T03:09:05.655Z,100.00
2023-03-17T03:11:34.920Z,100.00
2023-03-17T03:14:03.863Z,100.00
2023-03-17T03:16:31.864Z,100.00
2023-03-17T03:18:59.889Z,100.00
2023-03-17T03:21:28.390Z,100.00
2023-03-17T03:23:57.019Z,100.00
2023-03-17T03:26:25.064Z,100.00
2023-03-17T03:28:54.226Z,100.00
2023-03-17T03:31:22.926Z,100.00
2023-03-17T03:33:51.018Z,100.00
2023-03-17T03:36:18.967Z,100.00
2023-03-17T03:38:46.996Z,100.00
2023-03-17T03:41:15.057Z,100.00
2023-03-17T03:43:42.938Z,100.00
2023-03-17T03:46:12.218Z,100.00
2023-03-17T03:48:40.052Z,100.00
2023-03-17T03:51:08.230Z,100.00
2023-03-17T03:53:36.450Z,100.00
2023-03-17T03:56:04.295Z,100.00
2023-03-17T03:58:32.156Z,100.00
2023-03-17T04:00:59.992Z,100.00
2023-03-17T04:03:29.417Z,100.00
2023-03-17T04:05:58.285Z,100.00
2023-03-17T04:08:27.434Z,100.00
2023-03-17T04:10:55.304Z,100.00
2023-03-17T04:13:23.002Z,100.00
2023-03-17T04:15:53.699Z,100.00
2023-03-17T04:18:21.724Z,100.00
2023-03-17T04:20:51.317Z,100.00
2023-03-17T04:23:19.111Z,100.00
2023-03-17T04:25:47.441Z,100.00
2023-03-17T04:28:15.303Z,100.00
2023-03-17T04:30:43.086Z,100.00
2023-03-17T04:33:11.026Z,100.00
2023-03-17T04:35:38.866Z,100.00
2023-03-17T04:38:08.680Z,100.00
2023-03-17T04:40:36.612Z,100.00
2023-03-17T04:43:04.483Z,100.00
2023-03-17T04:45:32.511Z,100.00
2023-03-17T04:48:00.211Z,100.00
2023-03-17T04:50:28.011Z,100.00
2023-03-17T04:52:55.890Z,100.00
2023-03-17T04:55:25.933Z,100.00
2023-03-17T04:57:53.832Z,100.00
2023-03-17T05:00:21.792Z,100.00
2023-03-17T05:02:49.997Z,100.00
2023-03-17T05:05:18.276Z,100.00
2023-03-17T05:07:46.817Z,100.00
2023-03-17T05:10:14.913Z,100.00
2023-03-17T05:12:45.319Z,100.00
2023-03-17T05:15:13.410Z,100.00
2023-03-17T05:17:41.613Z,100.00
2023-03-17T05:20:11.110Z,100.00
2023-03-17T05:22:39.496Z,100.00
2023-03-17T05:25:07.866Z,100.00
2023-03-17T05:27:36.126Z,100.00
2023-03-17T05:30:06.770Z,100.00
2023-03-17T05:32:35.187Z,100.00
2023-03-17T05:35:03.539Z,100.00
2023-03-17T05:37:31.562Z,100.00
2023-03-17T05:39:59.393Z,100.00
2023-03-17T05:42:27.433Z,100.00
2023-03-17T05:44:55.319Z,100.00
2023-03-17T05:47:24.672Z,100.00
2023-03-17T05:49:52.811Z,100.00
2023-03-17T05:52:20.908Z,100.00
2023-03-17T05:54:49.138Z,100.00
2023-03-17T05:57:17.223Z,100.00
2023-03-17T05:59:45.495Z,100.00
2023-03-17T06:02:14.687Z,100.00
2023-03-17T06:04:44.546Z,100.00
2023-03-17T06:07:13.116Z,100.00
2023-03-17T06:09:41.836Z,100.00
2023-03-17T06:12:10.904Z,100.00
2023-03-17T06:14:39.198Z,100.00
2023-03-17T06:17:07.338Z,100.00
2023-03-17T06:19:35.650Z,100.00
2023-03-17T06:22:05.072Z,100.00
2023-03-17T06:24:33.116Z,98.07
2023-03-17T06:27:01.270Z,97.53
2023-03-17T06:29:29.583Z,98.22
2023-03-17T06:32:01.468Z,96.44
2023-03-17T06:34:37.252Z,96.23
2023-03-17T06:37:07.006Z,95.90
2023-03-17T06:39:35.194Z,96.64
2023-03-17T06:42:05.337Z,96.16
2023-03-17T06:44:34.390Z,95.05
2023-03-17T06:47:02.560Z,95.76
2023-03-17T06:49:30.673Z,95.48
2023-03-17T06:51:58.636Z,94.67
2023-03-17T06:54:28.987Z,93.48
2023-03-17T06:56:57.290Z,92.75
2023-03-17T06:59:25.284Z,91.57
2023-03-17T07:01:53.345Z,91.13
2023-03-17T07:04:21.267Z,89.35
2023-03-17T07:06:49.257Z,89.19
2023-03-17T07:09:17.554Z,88.47
2023-03-17T07:11:54.358Z,87.71
2023-03-17T07:14:22.354Z,87.28
2023-03-17T07:16:50.243Z,86.51
2023-03-17T07:19:18.480Z,86.42
2023-03-17T07:21:47.164Z,86.35
2023-03-17T07:24:15.493Z,85.66
2023-03-17T07:26:43.632Z,86.12
2023-03-17T07:29:14.250Z,85.54
2023-03-17T07:31:44.142Z,85.17
2023-03-17T07:34:12.798Z,84.56
2023-03-17T07:36:41.308Z,82.67
2023-03-17T07:39:12.019Z,81.20
2023-03-17T07:41:40.291Z,79.61
2023-03-17T07:44:09.684Z,78.42
2023-03-17T07:46:39.425Z,76.21
2023-03-17T07:49:07.784Z,76.89
2023-03-17T07:51:36.260Z,76.75
2023-03-17T07:54:05.809Z,75.69
2023-03-17T07:56:33.955Z,75.07
2023-03-17T07:59:01.745Z,74.26
2023-03-17T08:01:30.523Z,74.54
2023-03-17T08:04:00.627Z,74.09
2023-03-17T08:06:30.150Z,73.24
2023-03-17T08:08:58.108Z,73.39
2023-03-17T08:11:27.796Z,72.74
2023-03-17T08:13:57.230Z,70.83
2023-03-17T08:16:26.302Z,70.62
2023-03-17T08:18:54.376Z,69.37
2023-03-17T08:21:24.120Z,69.01
2023-03-17T08:23:52.498Z,67.55
2023-03-17T08:26:20.813Z,68.24
2023-03-17T08:28:53.292Z,66.97
2023-03-17T08:31:23.056Z,67.27
2023-03-17T08:33:52.998Z,67.59
2023-03-17T08:36:24.018Z,66.87
2023-03-17T08:38:52.062Z,66.34
2023-03-17T08:41:23.719Z,65.00
2023-03-17T08:43:52.451Z,64.46
2023-03-17T08:46:22.798Z,64.06
2023-03-17T08:48:53.000Z,63.90
2023-03-17T08:51:26.611Z,64.47
2023-03-17T08:53:56.335Z,64.01
2023-03-17T08:56:24.389Z,65.11
2023-03-17T08:58:52.843Z,64.59
2023-03-17T09:01:22.936Z,64.58
2023-03-17T09:03:52.112Z,63.59
2023-03-17T09:06:20.282Z,63.15
2023-03-17T09:08:55.181Z,63.93
2023-03-17T09:11:26.104Z,63.61
2023-03-17T09:13:54.438Z,62.96
2023-03-17T09:16:23.989Z,62.67
2023-03-17T09:18:52.864Z,62.73
2023-03-17T09:21:21.486Z,62.78
2023-03-17T09:23:51.273Z,62.29
2023-03-17T09:26:20.227Z,62.65
2023-03-17T09:28:48.693Z,62.96
2023-03-17T09:31:16.769Z,62.28
2023-03-17T09:33:44.809Z,61.90
2023-03-17T09:36:13.620Z,61.31
2023-03-17T09:38:41.586Z,61.99
2023-03-17T09:41:43.043Z,59.45
2023-03-17T09:44:19.520Z,60.41
2023-03-17T09:46:54.998Z,59.35
2023-03-17T09:49:27.580Z,58.09
2023-03-17T09:51:56.136Z,58.48
2023-03-17T09:54:28.535Z,58.23
2023-03-17T09:57:06.183Z,58.07
2023-03-17T09:59:38.213Z,57.73
2023-03-17T10:02:19.704Z,57.10
2023-03-17T10:04:48.779Z,57.36
2023-03-17T10:07:20.448Z,57.11
2023-03-17T10:09:57.591Z,55.29
2023-03-17T10:12:43.060Z,55.92
2023-03-17T10:15:19.316Z,55.04
2023-03-17T10:17:48.120Z,55.70
2023-03-17T10:20:19.596Z,54.80
2023-03-17T10:22:50.761Z,54.53
2023-03-17T10:25:21.570Z,55.29
2023-03-17T10:27:56.812Z,55.37
2023-03-17T10:30:25.925Z,54.80
2023-03-17T10:32:55.480Z,55.14
2023-03-17T10:35:24.921Z,55.25
2023-03-17T10:38:04.420Z,55.79
2023-03-17T10:40:40.608Z,54.51
2023-03-17T10:43:19.355Z,54.00
2023-03-17T10:46:00.951Z,54.46
2023-03-17T10:48:30.750Z,53.43
2023-03-17T10:50:59.830Z,54.11
2023-03-17T10:53:31.450Z,54.47
2023-03-17T10:56:02.520Z,53.65
2023-03-17T10:58:41.873Z,53.58
2023-03-17T11:01:20.545Z,53.22
2023-03-17T11:03:51.948Z,53.64
2023-03-17T11:06:21.693Z,52.70
2023-03-17T11:08:53.709Z,51.17
2023-03-17T11:11:27.173Z,51.81
2023-03-17T11:14:05.071Z,51.78
2023-03-17T11:16:36.016Z,51.12
2023-03-17T11:19:06.786Z,51.14
2023-03-17T11:21:47.764Z,51.26
2023-03-17T11:24:21.470Z,51.99
2023-03-17T11:26:57.675Z,53.06
2023-03-17T11:29:42.619Z,52.48
2023-03-17T11:32:27.088Z,52.24
2023-03-17T11:35:15.342Z,52.09
2023-03-17T11:38:01.037Z,51.64
2023-03-17T11:40:33.319Z,52.15
2023-03-17T11:43:16.982Z,53.22
2023-03-17T11:45:53.798Z,52.55
2023-03-17T11:48:38.693Z,51.89
2023-03-17T11:51:14.021Z,52.54
2023-03-17T11:53:54.897Z,52.26
2023-03-17T11:56:27.977Z,53.11
2023-03-17T11:59:02.714Z,51.84
2023-03-17T12:01:39.122Z,51.53
2023-03-17T12:04:16.689Z,51.02
2023-03-17T12:06:48.668Z,50.58
2023-03-17T12:09:26.873Z,50.69
2023-03-17T12:11:56.948Z,50.49
2023-03-17T12:14:30.140Z,50.38
2023-03-17T12:17:06.165Z,50.14
2023-03-17T12:19:43.770Z,50.39
2023-03-17T12:22:23.191Z,50.60
2023-03-17T12:25:04.361Z,50.57
2023-03-17T12:27:35.166Z,50.44
2023-03-17T12:30:09.451Z,49.84
2023-03-17T12:32:43.112Z,49.70
2023-03-17T12:35:29.625Z,50.00
2023-03-17T12:38:00.207Z,49.46
2023-03-17T12:40:35.522Z,48.94
2023-03-17T12:43:35.953Z,49.42
2023-03-17T12:46:19.847Z,48.28
2023-03-17T12:49:15.505Z,47.17
2023-03-17T12:51:59.734Z,47.89
2023-03-17T12:54:29.595Z,47.73
2023-03-17T12:57:04.337Z,47.51
2023-03-17T12:59:34.156Z,47.14
2023-03-17T13:02:16.847Z,48.08
2023-03-17T13:04:57.895Z,46.58
2023-03-17T13:07:33.974Z,47.48
2023-03-17T13:10:37.411Z,47.36
2023-03-17T13:13:25.567Z,47.77
2023-03-17T13:15:59.508Z,46.70
2023-03-17T13:18:47.796Z,47.24
2023-03-17T13:21:22.523Z,46.92
2023-03-17T13:23:57.159Z,46.75
2023-03-17T13:26:57.166Z,47.01
2023-03-17T13:29:41.214Z,45.88
2023-03-17T13:32:40.577Z,47.18
2023-03-17T13:35:39.295Z,46.31
2023-03-17T13:38:34.310Z,46.72
2023-03-17T13:41:41.202Z,46.15
2023-03-17T13:44:22.888Z,46.95
2023-03-17T13:46:51.680Z,47.95
2023-03-17T13:49:29.700Z,47.57
2023-03-17T13:52:06.506Z,47.72
2023-03-17T13:54:41.836Z,47.58
2023-03-17T13:57:25.512Z,47.30
2023-03-17T14:00:01.884Z,48.00
2023-03-17T14:02:33.028Z,47.92
2023-03-17T14:05:04.005Z,47.04
2023-03-17T14:07:40.725Z,47.89
2023-03-17T14:10:19.585Z,47.49
2023-03-17T14:12:53.483Z,46.66
2023-03-17T14:15:27.425Z,47.89
2023-03-17T14:18:00.395Z,46.64
2023-03-17T14:20:29.427Z,46.36
2023-03-17T14:23:00.496Z,47.95
2023-03-17T14:25:33.870Z,47.61
2023-03-17T14:28:05.481Z,47.66
2023-03-17T14:30:37.196Z,47.71
2023-03-17T14:33:08.339Z,48.30
2023-03-17T14:35:39.568Z,47.77
2023-03-17T14:38:18.852Z,47.73
2023-03-17T14:40:48.756Z,48.82
2023-03-17T14:43:17.353Z,48.58
2023-03-17T14:45:51.765Z,48.81
2023-03-17T14:48:26.913Z,47.80
2023-03-17T14:50:56.903Z,48.67
2023-03-17T14:53:26.488Z,49.28
2023-03-17T14:55:57.309Z,48.61
2023-03-17T14:58:28.612Z,49.42
2023-03-17T15:01:03.009Z,49.44
2023-03-17T15:03:33.126Z,49.24
2023-03-17T15:06:22.418Z,49.98
2023-03-17T15:08:50.880Z,49.82
2023-03-17T15:11:28.450Z,49.96
2023-03-17T15:14:04.833Z,49.06
2023-03-17T15:16:36.123Z,48.66
2023-03-17T15:19:08.340Z,48.90
2023-03-17T15:21:40.387Z,49.32
2023-03-17T15:24:24.411Z,49.08
2023-03-17T15:27:00.554Z,48.92
2023-03-17T15:29:29.196Z,49.29
2023-03-17T15:32:04.482Z,48.97
2023-03-17T15:34:32.386Z,49.56
2023-03-17T15:37:00.487Z,50.06
2023-03-17T15:39:28.716Z,49.76
2023-03-17T15:41:57.959Z,50.55
2023-03-17T15:44:27.034Z,50.25
2023-03-17T15:46:55.107Z,49.72
2023-03-17T15:49:25.248Z,50.21
2023-03-17T15:51:54.681Z,50.31
2023-03-17T15:54:22.666Z,49.97
2023-03-17T15:56:50.891Z,51.09
2023-03-17T15:59:20.288Z,50.06
2023-03-17T16:01:48.379Z,51.61
2023-03-17T16:04:17.962Z,52.05
2023-03-17T16:06:47.975Z,52.31
2023-03-17T16:09:18.402Z,52.64
2023-03-17T16:11:46.596Z,51.78
2023-03-17T16:14:14.589Z,51.74
2023-03-17T16:16:45.822Z,52.37
2023-03-17T16:19:20.126Z,53.77
2023-03-17T16:21:48.514Z,53.76
2023-03-17T16:24:21.592Z,55.05
2023-03-17T16:26:50.564Z,55.27
2023-03-17T16:29:19.681Z,54.71
2023-03-17T16:31:51.907Z,53.54
2023-03-17T16:34:21.986Z,53.65
2023-03-17T16:36:51.649Z,52.67
2023-03-17T16:39:21.188Z,53.80
2023-03-17T16:41:49.825Z,53.52
2023-03-17T16:44:20.346Z,54.72
2023-03-17T16:46:52.251Z,55.96
2023-03-17T16:49:22.911Z,55.54
2023-03-17T16:51:51.136Z,56.63
2023-03-17T16:54:19.100Z,58.21
2023-03-17T16:56:47.238Z,57.32
2023-03-17T16:59:21.365Z,57.81
2023-03-17T17:01:50.930Z,59.61
2023-03-17T17:04:18.973Z,57.83
2023-03-17T17:06:46.894Z,58.06
2023-03-17T17:09:14.870Z,58.92
2023-03-17T17:11:42.977Z,60.28
2023-03-17T17:14:10.795Z,59.74
2023-03-17T17:16:40.858Z,59.93
2023-03-17T17:19:16.186Z,59.38
2023-03-17T17:21:44.487Z,58.75
2023-03-17T17:24:13.393Z,59.28
2023-03-17T17:26:41.885Z,60.97
2023-03-17T17:29:11.317Z,59.18
2023-03-17T17:31:39.868Z,59.45
2023-03-17T17:34:07.762Z,59.88
2023-03-17T17:36:37.385Z,61.25
2023-03-17T17:39:05.294Z,59.29
2023-03-17T17:41:34.393Z,59.10
2023-03-17T17:44:02.477Z,60.21
2023-03-17T17:46:30.879Z,61.07
2023-03-17T17:48:58.759Z,62.36
2023-03-17T17:51:28.678Z,62.70
2023-03-17T17:53:58.130Z,62.54
2023-03-17T17:56:26.544Z,62.60
2023-03-17T17:58:54.466Z,63.21
2023-03-17T18:01:22.783Z,63.82
2023-03-17T18:03:50.939Z,63.80
2023-03-17T18:06:18.801Z,64.23
2023-03-17T18:08:47.137Z,64.50
2023-03-17T18:11:16.473Z,63.56
2023-03-17T18:13:44.378Z,63.76
2023-03-17T18:16:19.966Z,63.55
2023-03-17T18:18:47.935Z,64.51
2023-03-17T18:21:16.768Z,63.78
2023-03-17T18:23:47.254Z,63.87
2023-03-17T18:26:18.197Z,64.64
2023-03-17T18:28:47.719Z,65.01
2023-03-17T18:31:19.366Z,64.18
2023-03-17T18:33:51.228Z,64.28
2023-03-17T18:36:21.297Z,64.29
2023-03-17T18:38:49.439Z,64.31
2023-03-17T18:41:18.875Z,65.42
2023-03-17T18:43:46.827Z,65.00
2023-03-17T18:46:16.371Z,64.25
2023-03-17T18:48:44.591Z,64.36
2023-03-17T18:51:12.466Z,64.73
2023-03-17T18:53:40.404Z,64.81
2023-03-17T18:56:09.096Z,63.87
2023-03-17T18:58:38.481Z,65.61
2023-03-17T19:01:06.627Z,64.27
2023-03-17T19:03:34.666Z,65.58
2023-03-17T19:06:09.395Z,64.89
2023-03-17T19:08:37.513Z,65.61
2023-03-17T19:11:06.786Z,66.00
2023-03-17T19:13:35.051Z,65.32
2023-03-17T19:16:07.478Z,65.93
2023-03-17T19:18:36.084Z,66.12
2023-03-17T19:21:04.851Z,67.20
2023-03-17T19:23:33.588Z,66.01
2023-03-17T19:26:01.567Z,64.97
2023-03-17T19:28:29.721Z,64.98
2023-03-17T19:30:57.563Z,65.05
2023-03-17T19:33:28.835Z,65.12
2023-03-17T19:35:58.638Z,66.62
2023-03-17T19:38:27.279Z,67.38
2023-03-17T19:40:55.735Z,67.12
2023-03-17T19:43:39.507Z,68.64
2023-03-17T19:46:08.975Z,69.71
2023-03-17T19:48:38.234Z,69.73
2023-03-17T19:51:06.859Z,69.45
2023-03-17T19:53:34.974Z,70.28
2023-03-17T19:56:02.934Z,71.03
2023-03-17T19:58:31.270Z,71.32
2023-03-17T20:00:59.176Z,70.50
2023-03-17T20:03:27.965Z,71.46
2023-03-17T20:05:57.328Z,72.94
2023-03-17T20:08:25.240Z,72.36
2023-03-17T20:10:54.041Z,72.41
2023-03-17T20:13:22.132Z,72.92
2023-03-17T20:15:52.835Z,72.71
2023-03-17T20:18:21.159Z,71.88
2023-03-17T20:20:52.605Z,72.56
2023-03-17T20:23:22.770Z,72.87
2023-03-17T20:25:51.357Z,73.92
2023-03-17T20:28:23.008Z,73.98
2023-03-17T20:30:51.269Z,74.48
2023-03-17T20:33:19.513Z,75.20
2023-03-17T20:35:48.503Z,75.64
2023-03-17T20:38:16.590Z,76.02
2023-03-17T20:40:45.803Z,75.67
2023-03-17T20:43:14.256Z,76.18
2023-03-17T20:45:42.264Z,76.58
2023-03-17T20:48:10.703Z,77.32
2023-03-17T20:50:38.901Z,77.80
2023-03-17T20:53:07.513Z,78.48
2023-03-17T20:55:36.521Z,79.30
2023-03-17T20:58:05.913Z,79.63
2023-03-17T21:00:34.170Z,79.72
2023-03-17T21:03:02.769Z,79.88
2023-03-17T21:05:32.401Z,79.48
2023-03-17T21:08:00.367Z,80.08
2023-03-17T21:10:28.678Z,80.20
2023-03-17T21:12:56.744Z,80.87
2023-03-17T21:15:25.905Z,80.97
2023-03-17T21:17:53.880Z,82.49
2023-03-17T21:20:22.554Z,82.25
2023-03-17T21:22:50.648Z,83.43
2023-03-17T21:25:19.573Z,82.74
2023-03-17T21:27:47.481Z,84.24
2023-03-17T21:30:16.489Z,84.40
2023-03-17T21:32:45.864Z,85.17
2023-03-17T21:35:15.173Z,85.69
2023-03-17T21:37:43.144Z,86.03
2023-03-17T21:40:13.957Z,86.80
2023-03-17T21:42:41.865Z,86.95
2023-03-17T21:45:10.630Z,87.05
2023-03-17T21:47:40.325Z,87.65
2023-03-17T21:50:11.192Z,87.91
2023-03-17T21:52:39.396Z,88.82
2023-03-17T21:55:09.432Z,87.78
2023-03-17T21:57:37.411Z,88.85
2023-03-17T22:00:07.797Z,88.96
2023-03-17T22:02:35.740Z,88.97
2023-03-17T22:05:03.674Z,89.51
2023-03-17T22:07:32.907Z,88.33
2023-03-17T22:10:01.884Z,89.00
2023-03-17T22:12:29.872Z,90.13
2023-03-17T22:14:58.343Z,89.81
2023-03-17T22:17:27.094Z,89.58
2023-03-17T22:19:54.895Z,90.02
2023-03-17T22:22:23.560Z,89.39
2023-03-17T22:24:53.180Z,89.53
2023-03-17T22:27:21.349Z,89.92
2023-03-17T22:29:49.660Z,90.07
2023-03-17T22:32:17.664Z,90.28
2023-03-17T22:34:45.849Z,89.93
2023-03-17T22:37:13.922Z,90.04
2023-03-17T22:39:41.826Z,90.75
2023-03-17T22:42:11.806Z,91.21
2023-03-17T22:44:40.908Z,90.59
2023-03-17T22:47:09.398Z,91.14
2023-03-17T22:49:37.461Z,89.94
2023-03-17T22:52:06.064Z,90.79
2023-03-17T22:54:33.919Z,89.50
2023-03-17T22:57:03.443Z,91.17
2023-03-17T22:59:34.428Z,91.70
2023-03-17T23:02:02.638Z,92.13
2023-03-17T23:04:35.095Z,92.07
2023-03-17T23:07:03.415Z,92.68
2023-03-17T23:09:31.460Z,92.50
2023-03-17T23:11:59.709Z,92.01
2023-03-17T23:14:28.089Z,92.72
2023-03-17T23:16:57.543Z,93.15
2023-03-17T23:19:25.830Z,93.47
2023-03-17T23:21:53.991Z,92.36
2023-03-17T23:24:22.442Z,92.45
2023-03-17T23:26:50.676Z,91.77
2023-03-17T23:29:18.880Z,90.22
2023-03-17T23:31:47.073Z,90.77
2023-03-17T23:34:16.536Z,90.41
2023-03-17T23:36:44.458Z,90.39
2023-03-17T23:39:12.412Z,90.75
2023-03-17T23:41:40.453Z,90.12
2023-03-17T23:44:10.055Z,89.74
2023-03-17T23:46:38.668Z,88.85
2023-03-17T23:49:07.724Z,89.50
2023-03-17T23:51:36.893Z,88.76
2023-03-17T23:54:07.711Z,88.54
2023-03-17T23:56:35.872Z,87.56
2023-03-17T23:59:04.082Z,87.25
